createdAt,value
2017-11-19T00:01:29.947Z,7.47
2017-11-19T00:03:57.615Z,7.47
2017-11-19T00:06:25.224Z,7.48
2017-11-19T00:08:52.879Z,7.48
2017-11-19T00:11:20.484Z,7.42
2017-11-19T00:13:48.135Z,7.40
2017-11-19T00:16:15.782Z,7.39
2017-11-19T00:18:43.422Z,7.42
2017-11-19T00:21:11.074Z,7.40
2017-11-19T00:23:38.752Z,7.44
2017-11-19T00:26:06.368Z,7.44
2017-11-19T00:28:33.996Z,7.43
2017-11-19T00:31:01.687Z,7.46
2017-11-19T00:33:29.318Z,7.43
2017-11-19T00:35:56.919Z,7.44
2017-11-19T00:38:24.635Z,7.43
2017-11-19T00:40:52.231Z,7.44
2017-11-19T00:43:19.893Z,7.43
2017-11-19T00:45:47.516Z,7.42
2017-11-19T00:48:15.168Z,7.43
2017-11-19T00:50:42.780Z,7.43
2017-11-19T00:53:10.486Z,7.45
2017-11-19T00:55:38.083Z,7.47
2017-11-19T00:58:05.726Z,7.49
2017-11-19T01:00:33.312Z,7.47
2017-11-19T01:03:00.962Z,7.49
2017-11-19T01:05:28.572Z,7.47
2017-11-19T01:07:56.237Z,7.49
2017-11-19T01:10:23.841Z,7.49
2017-11-19T01:12:51.531Z,7.49
2017-11-19T01:15:19.171Z,7.46
2017-11-19T01:17:46.814Z,7.44
2017-11-19T01:20:14.446Z,7.44
2017-11-19T01:22:42.108Z,7.39
2017-11-19T01:25:09.715Z,7.34
2017-11-19T01:27:37.359Z,7.29
2017-11-19T01:30:04.968Z,7.23
2017-11-19T01:32:32.594Z,7.24
2017-11-19T01:35:00.292Z,7.23
2017-11-19T01:37:27.926Z,7.24
2017-11-19T01:39:55.521Z,7.20
2017-11-19T01:42:23.151Z,7.17
2017-11-19T01:44:50.742Z,7.21
2017-11-19T01:47:18.422Z,7.20
2017-11-19T01:49:46.030Z,7.23
2017-11-19T01:52:13.649Z,7.21
2017-11-19T01:54:41.231Z,7.22
2017-11-19T01:57:08.885Z,7.23
2017-11-19T01:59:36.490Z,7.26
2017-11-19T02:02:04.142Z,7.34
2017-11-19T02:04:31.743Z,7.35
2017-11-19T02:06:59.381Z,7.30
2017-11-19T02:09:26.975Z,7.30
2017-11-19T02:11:54.617Z,7.25
2017-11-19T02:14:22.279Z,7.25
2017-11-19T02:16:49.935Z,7.28
2017-11-19T02:19:17.567Z,7.24
2017-11-19T02:21:45.196Z,7.19
2017-11-19T02:24:12.834Z,7.18
2017-11-19T02:26:40.482Z,7.20
2017-11-19T02:29:08.121Z,7.25
2017-11-19T02:31:35.750Z,7.21
2017-11-19T02:34:03.365Z,7.21
2017-11-19T02:36:31.007Z,7.16
2017-11-19T02:38:58.626Z,7.17
2017-11-19T02:41:26.260Z,7.16
2017-11-19T02:43:53.883Z,7.14
2017-11-19T02:46:21.505Z,7.11
2017-11-19T02:48:49.158Z,7.12
2017-11-19T02:51:16.772Z,7.08
2017-11-19T02:53:44.404Z,7.07
2017-11-19T02:56:12.106Z,7.10
2017-11-19T02:58:39.726Z,7.09
2017-11-19T03:01:07.350Z,7.09
2017-11-19T03:03:35.003Z,7.08
2017-11-19T03:06:02.599Z,7.04
2017-11-19T03:08:30.240Z,7.06
2017-11-19T03:10:57.846Z,7.02
2017-11-19T03:13:25.527Z,7.03
2017-11-19T03:15:53.202Z,7.01
2017-11-19T03:18:20.819Z,6.97
2017-11-19T03:20:48.408Z,6.95
2017-11-19T03:23:16.055Z,6.91
2017-11-19T03:25:43.638Z,6.90
2017-11-19T03:28:11.322Z,6.89
2017-11-19T03:30:38.944Z,6.92
2017-11-19T03:33:06.559Z,6.89
2017-11-19T03:35:34.175Z,6.85
2017-11-19T03:38:01.806Z,6.82
2017-11-19T03:40:29.466Z,6.81
2017-11-19T03:42:57.120Z,6.77
2017-11-19T03:45:24.738Z,6.73
2017-11-19T03:47:52.353Z,6.66
2017-11-19T03:50:19.995Z,6.63
2017-11-19T03:52:47.626Z,6.58
2017-11-19T03:55:15.234Z,6.52
2017-11-19T03:57:42.868Z,6.51
2017-11-19T04:00:10.443Z,6.42
2017-11-19T04:02:38.079Z,6.44
2017-11-19T04:05:05.699Z,6.43
2017-11-19T04:07:33.331Z,6.41
2017-11-19T04:10:00.938Z,6.39
2017-11-19T04:12:28.650Z,6.40
2017-11-19T04:14:56.251Z,6.40
2017-11-19T04:17:23.892Z,6.43
2017-11-19T04:19:51.485Z,6.38
2017-11-19T04:22:19.230Z,6.38
2017-11-19T04:24:46.820Z,6.36
2017-11-19T04:27:14.443Z,6.34
2017-11-19T04:29:42.087Z,6.38
2017-11-19T04:32:09.761Z,6.41
2017-11-19T04:34:37.366Z,6.41
2017-11-19T04:37:05.099Z,6.41
2017-11-19T04:39:32.691Z,6.40
2017-11-19T04:42:00.339Z,6.40
2017-11-19T04:44:27.938Z,6.41
2017-11-19T04:46:55.569Z,6.44
2017-11-19T04:49:23.174Z,6.43
2017-11-19T04:51:50.799Z,6.42
2017-11-19T04:54:18.453Z,6.44
2017-11-19T04:56:46.079Z,6.42
2017-11-19T04:59:13.670Z,6.43
2017-11-19T05:01:41.299Z,6.42
2017-11-19T05:04:08.892Z,6.43
2017-11-19T05:06:36.523Z,6.42
2017-11-19T05:09:04.120Z,6.41
2017-11-19T05:11:31.743Z,6.38
2017-11-19T05:13:59.355Z,6.35
2017-11-19T05:16:27.040Z,6.34
2017-11-19T05:18:54.643Z,6.30
2017-11-19T05:21:22.301Z,6.27
2017-11-19T05:23:49.909Z,6.25
2017-11-19T05:26:17.548Z,6.21
2017-11-19T05:28:45.131Z,6.17
2017-11-19T05:31:12.762Z,6.20
2017-11-19T05:33:40.335Z,6.18
2017-11-19T05:36:07.962Z,6.16
2017-11-19T05:38:35.583Z,6.12
2017-11-19T05:41:03.217Z,6.13
2017-11-19T05:43:30.848Z,6.15
2017-11-19T05:45:58.491Z,6.15
2017-11-19T05:48:26.099Z,6.20
2017-11-19T05:50:53.811Z,6.25
2017-11-19T05:53:21.440Z,6.26
2017-11-19T05:55:49.062Z,6.27
2017-11-19T05:58:16.662Z,6.27
2017-11-19T06:00:44.282Z,6.33
2017-11-19T06:03:11.885Z,6.36
2017-11-19T06:05:39.514Z,6.35
2017-11-19T06:08:07.115Z,6.41
2017-11-19T06:10:34.744Z,6.41
2017-11-19T06:13:02.355Z,6.44
2017-11-19T06:15:29.939Z,6.43
2017-11-19T06:17:57.628Z,6.48
2017-11-19T06:20:25.223Z,6.46
2017-11-19T06:22:52.845Z,6.43
2017-11-19T06:25:20.508Z,6.46
2017-11-19T06:27:48.123Z,6.41
2017-11-19T06:30:15.722Z,6.40
2017-11-19T06:32:43.362Z,6.36
2017-11-19T06:35:10.951Z,6.32
2017-11-19T06:37:38.591Z,6.31
2017-11-19T06:40:06.206Z,6.33
2017-11-19T06:42:33.832Z,6.36
2017-11-19T06:45:01.440Z,6.35
2017-11-19T06:47:29.083Z,6.31
2017-11-19T06:49:56.682Z,6.33
2017-11-19T06:52:24.318Z,6.35
2017-11-19T06:54:51.910Z,6.38
2017-11-19T06:57:19.534Z,6.41
2017-11-19T06:59:47.184Z,6.40
2017-11-19T07:02:14.812Z,6.40
2017-11-19T07:04:42.414Z,6.40
2017-11-19T07:07:10.047Z,6.40
2017-11-19T07:09:37.640Z,6.45
2017-11-19T07:12:05.270Z,6.44
2017-11-19T07:14:32.971Z,6.44
2017-11-19T07:17:00.609Z,6.43
2017-11-19T07:19:28.254Z,6.45
2017-11-19T07:21:55.894Z,6.48
2017-11-19T07:24:23.496Z,6.49
2017-11-19T07:26:51.131Z,6.53
2017-11-19T07:29:18.743Z,6.54
2017-11-19T07:31:46.365Z,6.55
2017-11-19T07:34:14.091Z,6.56
2017-11-19T07:36:41.758Z,6.54
2017-11-19T07:39:09.359Z,6.54
2017-11-19T07:41:36.996Z,6.53
2017-11-19T07:44:04.738Z,6.55
2017-11-19T07:46:32.407Z,6.56
2017-11-19T07:49:00.005Z,6.56
2017-11-19T07:51:27.620Z,6.56
2017-11-19T07:53:55.221Z,6.57
2017-11-19T07:56:22.846Z,6.51
2017-11-19T07:58:50.441Z,6.49
2017-11-19T08:01:18.070Z,6.48
2017-11-19T08:03:45.664Z,6.50
2017-11-19T08:06:13.312Z,6.49
2017-11-19T08:08:40.911Z,6.53
2017-11-19T08:11:08.622Z,6.54
2017-11-19T08:13:36.237Z,6.59
2017-11-19T08:16:03.866Z,6.59
2017-11-19T08:18:31.506Z,6.56
2017-11-19T08:20:59.156Z,6.53
2017-11-19T08:23:26.767Z,6.51
2017-11-19T08:25:54.436Z,6.53
2017-11-19T08:28:22.074Z,6.55
2017-11-19T08:30:49.763Z,6.54
2017-11-19T08:33:17.383Z,6.54
2017-11-19T08:35:45.034Z,6.55
2017-11-19T08:38:12.642Z,6.56
2017-11-19T08:40:40.287Z,6.60
2017-11-19T08:43:07.986Z,6.66
2017-11-19T08:45:35.638Z,6.73
2017-11-19T08:48:03.268Z,6.76
2017-11-19T08:50:30.870Z,6.79
2017-11-19T08:52:58.508Z,6.83
2017-11-19T08:55:26.162Z,6.81
2017-11-19T08:57:53.765Z,6.83
2017-11-19T09:00:21.401Z,6.89
2017-11-19T09:02:49.043Z,6.90
2017-11-19T09:05:16.718Z,6.99
2017-11-19T09:07:44.316Z,7.04
2017-11-19T09:10:11.944Z,7.16
2017-11-19T09:12:39.596Z,7.19
2017-11-19T09:15:07.242Z,7.26
2017-11-19T09:17:34.835Z,7.21
2017-11-19T09:20:02.463Z,7.21
2017-11-19T09:22:30.084Z,7.38
2017-11-19T09:24:57.766Z,7.52
2017-11-19T09:27:25.415Z,7.66
2017-11-19T09:29:53.078Z,7.75
2017-11-19T09:32:20.693Z,7.85
2017-11-19T09:34:48.330Z,7.99
2017-11-19T09:37:15.933Z,8.01
2017-11-19T09:39:43.579Z,8.05
2017-11-19T09:42:11.271Z,8.11
2017-11-19T09:44:38.923Z,8.23
2017-11-19T09:47:06.531Z,8.30
2017-11-19T09:49:34.150Z,8.44
2017-11-19T09:52:01.784Z,8.57
2017-11-19T09:54:29.398Z,8.68
2017-11-19T09:56:57.055Z,8.75
2017-11-19T09:59:24.675Z,8.89
2017-11-19T10:01:52.317Z,8.76
2017-11-19T10:04:19.927Z,8.58
2017-11-19T10:06:47.556Z,8.48
2017-11-19T10:09:15.232Z,8.32
2017-11-19T10:11:42.877Z,8.21
2017-11-19T10:14:10.504Z,8.22
2017-11-19T10:16:38.149Z,8.56
2017-11-19T10:19:05.802Z,8.94
2017-11-19T10:21:33.464Z,9.27
2017-11-19T10:24:01.067Z,9.29
2017-11-19T10:26:28.736Z,9.43
2017-11-19T10:28:56.373Z,9.58
2017-11-19T10:31:24.023Z,9.66
2017-11-19T10:33:51.660Z,9.76
2017-11-19T10:36:19.330Z,9.90
2017-11-19T10:38:46.952Z,9.94
2017-11-19T10:41:14.621Z,9.97
2017-11-19T10:43:42.280Z,10.07
2017-11-19T10:46:09.981Z,9.92
2017-11-19T10:48:37.619Z,9.96
2017-11-19T10:51:05.287Z,10.12
2017-11-19T10:53:32.914Z,10.27
2017-11-19T10:56:00.592Z,10.42
2017-11-19T10:58:28.239Z,10.48
2017-11-19T11:00:55.900Z,10.59
2017-11-19T11:03:23.526Z,10.39
2017-11-19T11:05:51.164Z,10.12
2017-11-19T11:08:18.766Z,10.08
2017-11-19T11:10:46.408Z,10.07
2017-11-19T11:13:14.039Z,9.78
2017-11-19T11:15:41.701Z,9.74
2017-11-19T11:18:09.310Z,9.72
2017-11-19T11:20:36.963Z,9.72
2017-11-19T11:23:04.583Z,9.59
2017-11-19T11:25:32.239Z,9.35
2017-11-19T11:27:59.859Z,9.40
2017-11-19T11:30:27.640Z,9.82
2017-11-19T11:32:55.277Z,10.08
2017-11-19T11:35:22.923Z,10.14
2017-11-19T11:37:50.570Z,9.86
2017-11-19T11:40:18.233Z,10.17
2017-11-19T11:42:45.874Z,10.77
2017-11-19T11:45:13.579Z,10.63
2017-11-19T11:47:41.225Z,10.31
2017-11-19T11:50:08.939Z,10.08
2017-11-19T11:52:36.547Z,9.74
2017-11-19T11:55:04.178Z,9.58
2017-11-19T11:57:31.787Z,9.57
2017-11-19T11:59:59.438Z,9.63
2017-11-19T12:02:27.054Z,9.60
2017-11-19T12:04:54.700Z,9.49
2017-11-19T12:07:22.308Z,9.50
2017-11-19T12:09:49.963Z,9.46
2017-11-19T12:12:17.604Z,9.49
2017-11-19T12:14:45.241Z,9.44
2017-11-19T12:17:12.850Z,9.45
2017-11-19T12:19:40.474Z,9.47
2017-11-19T12:22:08.159Z,9.59
2017-11-19T12:24:35.799Z,9.66
2017-11-19T12:27:03.411Z,9.69
2017-11-19T12:29:31.055Z,9.71
2017-11-19T12:31:58.668Z,9.60
2017-11-19T12:34:26.344Z,9.60
2017-11-19T12:36:53.982Z,9.54
2017-11-19T12:39:21.595Z,9.44
2017-11-19T12:41:49.209Z,9.38
2017-11-19T12:44:16.863Z,9.32
2017-11-19T12:46:44.475Z,9.32
2017-11-19T12:49:12.216Z,9.29
2017-11-19T12:51:39.818Z,9.26
2017-11-19T12:54:07.495Z,9.28
2017-11-19T12:56:35.083Z,9.26
2017-11-19T12:59:02.774Z,9.32
2017-11-19T13:01:30.379Z,9.36
2017-11-19T13:03:58.034Z,9.38
2017-11-19T13:06:25.638Z,9.37
2017-11-19T13:08:53.268Z,9.35
2017-11-19T13:11:20.871Z,9.33
2017-11-19T13:13:48.495Z,9.25
2017-11-19T13:16:16.126Z,9.13
2017-11-19T13:18:43.759Z,9.01
2017-11-19T13:21:11.500Z,8.89
2017-11-19T13:23:39.133Z,8.86
2017-11-19T13:26:06.799Z,8.85
2017-11-19T13:28:34.403Z,8.80
2017-11-19T13:31:02.050Z,9.03
2017-11-19T13:33:29.650Z,9.29
2017-11-19T13:35:57.330Z,9.50
2017-11-19T13:38:24.974Z,9.86
2017-11-19T13:40:52.645Z,9.93
2017-11-19T13:43:20.252Z,9.93
2017-11-19T13:45:47.903Z,9.95
2017-11-19T13:48:15.576Z,10.25
2017-11-19T13:50:43.262Z,10.41
2017-11-19T13:53:10.897Z,10.41
2017-11-19T13:55:38.539Z,10.32
2017-11-19T13:58:06.172Z,10.25
2017-11-19T14:00:33.833Z,10.32
2017-11-19T14:03:01.445Z,10.29
2017-11-19T14:05:29.179Z,10.22
2017-11-19T14:07:56.874Z,10.01
2017-11-19T14:10:24.502Z,9.76
2017-11-19T14:12:52.109Z,9.58
2017-11-19T14:15:19.748Z,9.56
2017-11-19T14:17:47.362Z,9.42
2017-11-19T14:20:15.068Z,9.36
2017-11-19T14:22:42.703Z,9.30
2017-11-19T14:25:10.447Z,9.27
2017-11-19T14:27:38.067Z,9.24
2017-11-19T14:30:05.839Z,9.17
2017-11-19T14:32:33.443Z,9.18
2017-11-19T14:35:01.082Z,9.21
2017-11-19T14:37:28.767Z,9.23
2017-11-19T14:39:56.401Z,9.14
2017-11-19T14:42:24.003Z,9.06
2017-11-19T14:44:51.637Z,8.99
2017-11-19T14:47:19.273Z,8.94
2017-11-19T14:49:46.938Z,8.96
2017-11-19T14:52:14.556Z,8.99
2017-11-19T14:54:42.171Z,8.96
2017-11-19T14:57:09.800Z,8.96
2017-11-19T14:59:37.435Z,8.96
2017-11-19T15:02:05.065Z,8.93
2017-11-19T15:04:32.698Z,8.92
2017-11-19T15:07:00.382Z,8.89
2017-11-19T15:09:28.035Z,8.86
2017-11-19T15:11:55.667Z,8.78
2017-11-19T15:14:23.307Z,8.70
2017-11-19T15:16:50.975Z,8.65
2017-11-19T15:19:18.609Z,8.63
2017-11-19T15:21:46.223Z,8.59
2017-11-19T15:24:13.890Z,8.51
2017-11-19T15:26:41.552Z,8.47
2017-11-19T15:29:09.191Z,8.41
2017-11-19T15:31:36.809Z,8.41
2017-11-19T15:34:04.427Z,8.37
2017-11-19T15:36:32.039Z,8.38
2017-11-19T15:38:59.686Z,8.38
2017-11-19T15:41:27.281Z,8.42
2017-11-19T15:43:54.944Z,8.31
2017-11-19T15:46:22.581Z,8.25
2017-11-19T15:48:50.253Z,8.15
2017-11-19T15:51:17.866Z,8.11
2017-11-19T15:53:45.519Z,8.13
2017-11-19T15:56:13.116Z,8.14
2017-11-19T15:58:40.786Z,8.11
2017-11-19T16:01:08.506Z,8.07
2017-11-19T16:03:36.215Z,8.11
2017-11-19T16:06:05.360Z,8.08
2017-11-19T16:08:33.034Z,8.08
2017-11-19T16:11:00.645Z,8.09
2017-11-19T16:13:28.308Z,8.10
2017-11-19T16:15:55.937Z,8.11
2017-11-19T16:18:23.591Z,8.16
2017-11-19T16:20:51.211Z,8.16
2017-11-19T16:23:18.876Z,8.09
2017-11-19T16:25:46.689Z,8.04
2017-11-19T16:28:14.320Z,8.02
2017-11-19T16:30:41.927Z,8.01
2017-11-19T16:33:09.686Z,7.98
2017-11-19T16:35:37.316Z,7.96
2017-11-19T16:38:04.947Z,7.97
2017-11-19T16:40:32.534Z,7.96
2017-11-19T16:43:00.200Z,7.93
2017-11-19T16:45:27.805Z,7.90
2017-11-19T16:47:55.451Z,7.90
2017-11-19T16:50:23.057Z,7.89
2017-11-19T16:52:50.745Z,7.91
2017-11-19T16:55:18.369Z,7.94
2017-11-19T16:57:45.996Z,7.95
2017-11-19T17:00:13.660Z,7.93
2017-11-19T17:02:41.295Z,7.87
2017-11-19T17:05:08.960Z,7.86
2017-11-19T17:07:36.582Z,7.85
2017-11-19T17:10:04.218Z,7.84
2017-11-19T17:12:31.869Z,7.87
2017-11-19T17:14:59.492Z,7.80
2017-11-19T17:17:27.136Z,7.78
2017-11-19T17:19:54.810Z,7.78
2017-11-19T17:22:22.406Z,7.78
2017-11-19T17:24:50.056Z,7.80
2017-11-19T17:27:17.678Z,7.80
2017-11-19T17:29:45.327Z,7.79
2017-11-19T17:32:12.934Z,7.78
2017-11-19T17:34:40.612Z,7.75
2017-11-19T17:37:08.251Z,7.74
2017-11-19T17:39:35.911Z,7.76
2017-11-19T17:42:03.512Z,7.77
2017-11-19T17:44:31.168Z,7.77
2017-11-19T17:46:58.764Z,7.75
2017-11-19T17:49:26.430Z,7.73
2017-11-19T17:51:54.064Z,7.76
2017-11-19T17:54:21.727Z,7.75
2017-11-19T17:56:49.373Z,7.72
2017-11-19T17:59:17.043Z,7.73
2017-11-19T18:01:44.664Z,7.71
2017-11-19T18:04:12.338Z,7.72
2017-11-19T18:06:39.938Z,7.71
2017-11-19T18:09:07.614Z,7.66
2017-11-19T18:11:35.287Z,7.59
2017-11-19T18:14:02.936Z,7.54
2017-11-19T18:16:30.567Z,7.50
2017-11-19T18:18:58.262Z,7.46
2017-11-19T18:21:25.870Z,7.49
2017-11-19T18:23:53.507Z,7.44
2017-11-19T18:26:21.112Z,7.46
2017-11-19T18:28:48.763Z,7.44
2017-11-19T18:31:16.375Z,7.47
2017-11-19T18:33:44.043Z,7.52
2017-11-19T18:36:11.671Z,8.50
2017-11-19T18:38:39.300Z,8.28
2017-11-19T18:41:06.911Z,8.08
2017-11-19T18:43:34.669Z,7.82
2017-11-19T18:46:02.290Z,7.69
2017-11-19T18:48:29.951Z,7.63
2017-11-19T18:50:57.594Z,7.55
2017-11-19T18:53:25.237Z,7.49
2017-11-19T18:55:52.833Z,7.46
2017-11-19T18:58:20.480Z,7.39
2017-11-19T19:00:48.092Z,7.36
2017-11-19T19:03:15.794Z,7.39
2017-11-19T19:05:43.473Z,7.39
2017-11-19T19:08:11.143Z,7.35
2017-11-19T19:10:38.754Z,7.34
2017-11-19T19:13:06.401Z,7.33
2017-11-19T19:15:34.043Z,7.27
2017-11-19T19:18:01.695Z,7.23
2017-11-19T19:20:29.331Z,7.21
2017-11-19T19:22:56.991Z,7.20
2017-11-19T19:25:24.574Z,7.19
2017-11-19T19:27:52.186Z,7.20
2017-11-19T19:30:19.830Z,7.19
2017-11-19T19:32:47.434Z,7.17
2017-11-19T19:35:15.178Z,7.16
2017-11-19T19:37:42.791Z,7.16
2017-11-19T19:40:10.447Z,7.16
2017-11-19T19:42:38.058Z,7.17
2017-11-19T19:45:05.724Z,7.19
2017-11-19T19:47:33.344Z,7.17
2017-11-19T19:50:00.978Z,7.23
2017-11-19T19:52:28.583Z,7.21
2017-11-19T19:54:56.237Z,7.20
2017-11-19T19:57:23.878Z,7.17
2017-11-19T19:59:51.533Z,7.16
2017-11-19T20:02:19.458Z,7.17
2017-11-19T20:04:47.130Z,7.14
2017-11-19T20:07:14.750Z,7.14
2017-11-19T20:09:42.958Z,7.16
2017-11-19T20:12:10.565Z,7.19
2017-11-19T20:14:38.217Z,7.20
2017-11-19T20:17:05.843Z,7.21
2017-11-19T20:19:33.478Z,7.23
2017-11-19T20:22:01.099Z,7.24
2017-11-19T20:24:28.727Z,7.25
2017-11-19T20:26:56.354Z,7.23
2017-11-19T20:29:24.021Z,7.22
2017-11-19T20:31:51.624Z,7.23
2017-11-19T20:34:19.265Z,7.22
2017-11-19T20:36:46.905Z,7.21
2017-11-19T20:39:14.684Z,7.24
2017-11-19T20:41:42.328Z,7.24
2017-11-19T20:44:09.992Z,7.25
2017-11-19T20:46:37.614Z,7.29
2017-11-19T20:49:05.248Z,7.29
2017-11-19T20:51:32.882Z,7.32
2017-11-19T20:54:00.582Z,7.33
2017-11-19T20:56:28.196Z,7.31
2017-11-19T20:58:55.840Z,7.30
2017-11-19T21:01:23.441Z,7.33
2017-11-19T21:03:51.082Z,7.32
2017-11-19T21:06:18.695Z,7.31
2017-11-19T21:08:46.479Z,7.27
2017-11-19T21:11:14.092Z,7.25
2017-11-19T21:13:41.739Z,7.24
2017-11-19T21:16:09.366Z,7.26
2017-11-19T21:18:37.163Z,7.29
2017-11-19T21:21:04.790Z,7.29
2017-11-19T21:23:32.506Z,7.29
2017-11-19T21:26:00.129Z,7.29
2017-11-19T21:28:27.765Z,7.25
2017-11-19T21:30:55.362Z,7.26
2017-11-19T21:33:22.975Z,7.25
2017-11-19T21:35:50.584Z,7.21
2017-11-19T21:38:18.255Z,7.18
2017-11-19T21:40:45.883Z,7.20
2017-11-19T21:43:13.550Z,7.15
2017-11-19T21:45:41.151Z,7.15
2017-11-19T21:48:08.857Z,7.15
2017-11-19T21:50:36.478Z,7.17
2017-11-19T21:53:04.123Z,7.22
2017-11-19T21:55:31.735Z,7.22
2017-11-19T21:57:59.383Z,7.20
2017-11-19T22:00:27.007Z,7.19
2017-11-19T22:02:54.651Z,7.20
2017-11-19T22:05:22.277Z,7.56
2017-11-19T22:07:50.062Z,7.46
2017-11-19T22:10:17.722Z,7.31
2017-11-19T22:12:45.378Z,7.29
2017-11-19T22:15:12.990Z,7.20
2017-11-19T22:17:40.799Z,7.18
2017-11-19T22:20:08.416Z,7.19
2017-11-19T22:22:36.122Z,7.17
2017-11-19T22:25:03.725Z,7.16
2017-11-19T22:27:31.517Z,7.17
2017-11-19T22:29:59.145Z,7.18
2017-11-19T22:32:26.803Z,7.17
2017-11-19T22:34:54.406Z,7.19
2017-11-19T22:37:22.055Z,7.14
2017-11-19T22:39:49.663Z,7.16
2017-11-19T22:42:17.287Z,7.14
2017-11-19T22:44:44.883Z,7.12
2017-11-19T22:47:12.529Z,7.08
2017-11-19T22:49:40.137Z,7.04
2017-11-19T22:52:07.775Z,7.04
2017-11-19T22:54:35.392Z,6.99
2017-11-19T22:57:03.260Z,6.99
2017-11-19T22:59:30.926Z,6.96
2017-11-19T23:01:58.539Z,6.94
2017-11-19T23:04:26.243Z,6.96
2017-11-19T23:06:54.073Z,6.98
2017-11-19T23:09:21.735Z,6.94
2017-11-19T23:11:49.401Z,6.94
2017-11-19T23:14:17.045Z,6.95
2017-11-19T23:16:44.714Z,6.97
2017-11-19T23:19:12.354Z,6.94
2017-11-19T23:21:39.941Z,6.87
2017-11-19T23:24:07.606Z,6.84
2017-11-19T23:26:35.203Z,6.84
2017-11-19T23:29:02.842Z,6.78
2017-11-19T23:31:30.482Z,6.73
2017-11-19T23:33:58.117Z,6.71
2017-11-19T23:36:25.770Z,6.66
2017-11-19T23:38:53.427Z,6.63
2017-11-19T23:41:21.024Z,6.60
2017-11-19T23:43:48.706Z,6.58
2017-11-19T23:46:16.334Z,6.55
2017-11-19T23:48:44.074Z,6.54
2017-11-19T23:51:11.666Z,6.49
2017-11-19T23:53:39.340Z,6.47
2017-11-19T23:56:06.938Z,6.47
2017-11-19T23:58:34.568Z,6.49
